createdAt,value
2022-10-08T00:00:52.483Z,2.90
2022-10-08T00:03:20.688Z,2.95
2022-10-08T00:06:12.313Z,3.15
2022-10-08T00:08:41.224Z,2.70
2022-10-08T00:11:11.529Z,3.00
2022-10-08T00:13:43.404Z,2.80
2022-10-08T00:16:12.504Z,2.80
2022-10-08T00:18:41.063Z,3.42
2022-10-08T00:21:17.348Z,2.10
2022-10-08T00:23:46.633Z,3.60
2022-10-08T00:26:14.664Z,2.63
2022-10-08T00:28:45.063Z,2.88
2022-10-08T00:31:18.039Z,2.92
2022-10-08T00:33:44.680Z,2.78
2022-10-08T00:36:12.972Z,2.90
2022-10-08T00:38:40.215Z,3.75
2022-10-08T00:41:08.838Z,2.92
2022-10-08T00:43:45.727Z,2.80
2022-10-08T00:46:18.378Z,2.80
2022-10-08T00:48:45.270Z,2.70
2022-10-08T00:51:12.074Z,2.08
2022-10-08T00:53:39.865Z,2.72
2022-10-08T00:56:06.551Z,2.67
2022-10-08T00:58:34.363Z,2.53
2022-10-08T01:01:01.175Z,2.70
2022-10-08T01:03:28.259Z,2.85
2022-10-08T01:06:27.543Z,2.92
2022-10-08T01:09:18.896Z,3.45
2022-10-08T01:12:00.919Z,3.13
2022-10-08T01:14:56.415Z,2.53
2022-10-08T01:17:33.280Z,2.70
2022-10-08T01:20:27.360Z,2.85
2022-10-08T01:23:09.302Z,2.90
2022-10-08T01:25:47.829Z,2.60
2022-10-08T01:29:04.880Z,3.15
2022-10-08T01:31:35.785Z,2.53
2022-10-08T01:34:27.022Z,2.58
2022-10-08T01:36:56.196Z,2.92
2022-10-08T01:39:28.810Z,2.30
2022-10-08T01:41:56.534Z,2.60
2022-10-08T01:44:33.611Z,2.10
2022-10-08T01:47:03.988Z,2.38
2022-10-08T01:49:38.565Z,2.38
2022-10-08T01:52:11.853Z,2.58
2022-10-08T01:54:40.763Z,2.70
2022-10-08T01:57:10.765Z,2.30
2022-10-08T01:59:47.246Z,2.40
2022-10-08T02:02:24.101Z,2.13
2022-10-08T02:04:53.333Z,2.40
2022-10-08T02:07:23.511Z,2.33
2022-10-08T02:09:52.879Z,2.42
2022-10-08T02:12:20.725Z,2.53
2022-10-08T02:14:50.519Z,2.67
2022-10-08T02:17:32.151Z,2.60
2022-10-08T02:20:01.716Z,2.58
2022-10-08T02:22:34.840Z,2.70
2022-10-08T02:25:29.115Z,2.33
2022-10-08T02:28:08.398Z,2.58
2022-10-08T02:30:48.245Z,2.42
2022-10-08T02:33:26.842Z,2.67
2022-10-08T02:35:57.438Z,2.42
2022-10-08T02:38:33.066Z,2.60
2022-10-08T02:41:02.972Z,2.60
2022-10-08T02:43:33.143Z,2.72
2022-10-08T02:46:17.186Z,2.83
2022-10-08T02:48:50.436Z,2.60
2022-10-08T02:51:18.676Z,3.10
2022-10-08T02:53:48.141Z,3.05
2022-10-08T02:56:27.524Z,2.53
2022-10-08T02:58:55.349Z,3.15
2022-10-08T03:01:40.103Z,2.92
2022-10-08T03:04:15.200Z,2.85
2022-10-08T03:06:41.968Z,2.75
2022-10-08T03:09:11.703Z,3.33
2022-10-08T03:11:38.703Z,3.25
2022-10-08T03:14:09.181Z,3.40
2022-10-08T03:16:39.624Z,3.20
2022-10-08T03:19:10.237Z,2.45
2022-10-08T03:21:39.314Z,2.42
2022-10-08T03:24:09.971Z,2.50
2022-10-08T03:26:37.366Z,2.83
2022-10-08T03:29:04.989Z,2.40
2022-10-08T03:31:31.672Z,3.35
2022-10-08T03:33:58.268Z,3.00
2022-10-08T03:36:25.787Z,2.47
2022-10-08T03:38:52.453Z,3.13
2022-10-08T03:41:19.575Z,3.38
2022-10-08T03:43:46.567Z,3.08
2022-10-08T03:46:14.561Z,2.78
2022-10-08T03:48:41.697Z,2.53
2022-10-08T03:51:12.088Z,2.80
2022-10-08T03:53:41.115Z,3.25
2022-10-08T03:56:19.793Z,2.70
2022-10-08T03:58:47.481Z,2.50
2022-10-08T04:01:18.144Z,3.28
2022-10-08T04:03:47.795Z,3.55
2022-10-08T04:06:14.607Z,2.38
2022-10-08T04:08:41.724Z,2.53
2022-10-08T04:11:10.231Z,2.30
2022-10-08T04:13:37.721Z,2.90
2022-10-08T04:16:11.129Z,2.53
2022-10-08T04:18:38.008Z,3.28
2022-10-08T04:21:07.202Z,2.88
2022-10-08T04:23:35.201Z,2.80
2022-10-08T04:26:02.289Z,3.17
2022-10-08T04:28:29.196Z,2.83
2022-10-08T04:31:03.148Z,2.83
2022-10-08T04:33:32.101Z,2.83
2022-10-08T04:36:00.296Z,2.80
2022-10-08T04:38:28.594Z,2.50
2022-10-08T04:41:23.040Z,3.30
2022-10-08T04:43:49.805Z,2.63
2022-10-08T04:46:19.056Z,2.58
2022-10-08T04:48:50.975Z,2.65
2022-10-08T04:51:18.011Z,3.05
2022-10-08T04:53:45.188Z,3.00
2022-10-08T04:56:18.037Z,3.35
2022-10-08T04:58:45.158Z,3.20
2022-10-08T05:01:14.410Z,3.10
2022-10-08T05:03:43.923Z,2.97
2022-10-08T05:06:10.881Z,3.80
2022-10-08T05:08:37.651Z,3.88
2022-10-08T05:11:04.727Z,4.15
2022-10-08T05:13:31.316Z,4.20
2022-10-08T05:16:03.415Z,4.07
2022-10-08T05:18:31.522Z,4.28
2022-10-08T05:21:06.031Z,4.18
2022-10-08T05:23:33.636Z,3.95
2022-10-08T05:26:02.208Z,3.97
2022-10-08T05:28:29.500Z,3.80
2022-10-08T05:31:01.135Z,3.83
2022-10-08T05:33:27.925Z,3.80
2022-10-08T05:35:54.504Z,4.00
2022-10-08T05:38:21.132Z,3.83
2022-10-08T05:40:47.744Z,4.43
2022-10-08T05:43:14.463Z,3.60
2022-10-08T05:45:49.806Z,4.10
2022-10-08T05:48:16.549Z,3.95
2022-10-08T05:50:43.122Z,3.70
2022-10-08T05:53:09.704Z,3.88
2022-10-08T05:55:36.256Z,4.72
2022-10-08T05:58:02.847Z,4.45
2022-10-08T06:00:29.388Z,6.35
2022-10-08T06:02:56.008Z,5.53
2022-10-08T06:05:22.572Z,5.60
2022-10-08T06:07:49.144Z,6.63
2022-10-08T06:10:15.872Z,7.20
2022-10-08T06:12:42.470Z,7.13
2022-10-08T06:15:09.411Z,7.63
2022-10-08T06:17:36.145Z,8.10
2022-10-08T06:20:02.726Z,7.75
2022-10-08T06:22:29.308Z,9.13
2022-10-08T06:24:55.853Z,9.52
2022-10-08T06:27:22.434Z,7.90
2022-10-08T06:29:48.998Z,9.50
2022-10-08T06:32:15.652Z,10.23
2022-10-08T06:34:42.259Z,9.43
2022-10-08T06:37:09.027Z,10.10
2022-10-08T06:39:35.617Z,9.68
2022-10-08T06:42:02.161Z,11.75
2022-10-08T06:44:28.728Z,13.48
2022-10-08T06:46:55.386Z,12.52
2022-10-08T06:49:26.442Z,13.32
2022-10-08T06:51:53.085Z,14.52
2022-10-08T06:54:19.716Z,13.32
2022-10-08T06:56:46.289Z,12.50
2022-10-08T06:59:12.876Z,13.00
2022-10-08T07:01:39.694Z,15.02
2022-10-08T07:04:06.787Z,13.52
2022-10-08T07:06:33.937Z,13.65
2022-10-08T07:09:01.861Z,14.52
2022-10-08T07:11:30.143Z,13.80
2022-10-08T07:13:56.979Z,13.98
2022-10-08T07:16:25.250Z,13.00
2022-10-08T07:18:54.211Z,13.48
2022-10-08T07:21:22.074Z,12.63
2022-10-08T07:23:49.316Z,12.93
2022-10-08T07:26:18.869Z,12.73
2022-10-08T07:28:58.001Z,12.45
2022-10-08T07:31:31.123Z,12.02
2022-10-08T07:34:02.537Z,13.50
2022-10-08T07:36:30.089Z,12.45
2022-10-08T07:39:02.692Z,13.13
2022-10-08T07:41:32.818Z,13.00
2022-10-08T07:44:01.534Z,12.02
2022-10-08T07:46:36.569Z,12.57
2022-10-08T07:49:04.587Z,13.75
2022-10-08T07:51:33.285Z,12.70
2022-10-08T07:54:02.683Z,11.30
2022-10-08T07:56:30.411Z,12.02
2022-10-08T07:58:58.712Z,11.75
2022-10-08T08:01:29.883Z,11.57
2022-10-08T08:04:07.821Z,11.85
2022-10-08T08:06:39.673Z,11.95
2022-10-08T08:09:06.287Z,11.30
2022-10-08T08:11:32.962Z,11.65
2022-10-08T08:13:59.620Z,12.00
2022-10-08T08:16:28.986Z,12.32
2022-10-08T08:19:00.549Z,12.05
2022-10-08T08:21:30.689Z,10.48
2022-10-08T08:24:01.993Z,9.90
2022-10-08T08:26:32.824Z,10.85
2022-10-08T08:29:05.641Z,10.85
2022-10-08T08:31:37.909Z,10.70
2022-10-08T08:34:08.454Z,11.88
2022-10-08T08:36:38.012Z,10.50
2022-10-08T08:39:05.738Z,11.15
2022-10-08T08:41:42.512Z,11.70
2022-10-08T08:44:30.623Z,11.43
2022-10-08T08:47:20.661Z,12.10
2022-10-08T08:49:54.375Z,11.43
2022-10-08T08:52:26.548Z,10.25
2022-10-08T08:54:53.400Z,10.05
2022-10-08T08:57:46.357Z,9.00
2022-10-08T09:00:18.168Z,9.60
2022-10-08T09:02:58.028Z,8.93
2022-10-08T09:05:26.448Z,9.05
2022-10-08T09:08:02.386Z,9.90
2022-10-08T09:10:40.776Z,9.85
2022-10-08T09:13:15.283Z,9.52
2022-10-08T09:15:42.990Z,8.57
2022-10-08T09:18:14.261Z,8.60
2022-10-08T09:20:41.403Z,7.85
2022-10-08T09:23:17.777Z,7.18
2022-10-08T09:25:50.678Z,6.57
2022-10-08T09:28:42.791Z,6.57
2022-10-08T09:31:27.660Z,6.35
2022-10-08T09:34:13.053Z,5.35
2022-10-08T09:36:44.288Z,5.50
2022-10-08T09:39:23.250Z,4.60
2022-10-08T09:42:08.138Z,4.40
2022-10-08T09:44:43.703Z,4.47
2022-10-08T09:47:17.395Z,4.38
2022-10-08T09:49:44.915Z,3.60
2022-10-08T09:52:17.358Z,4.00
2022-10-08T09:55:08.741Z,2.90
2022-10-08T09:57:43.962Z,2.60
2022-10-08T10:00:38.187Z,2.53
2022-10-08T10:03:07.167Z,2.13
2022-10-08T10:05:36.250Z,2.88
2022-10-08T10:08:03.923Z,2.50
2022-10-08T10:10:45.045Z,2.28
2022-10-08T10:13:21.143Z,2.05
2022-10-08T10:15:56.222Z,2.20
2022-10-08T10:18:30.999Z,2.38
2022-10-08T10:21:05.557Z,2.03
2022-10-08T10:23:37.223Z,1.92
2022-10-08T10:26:07.047Z,2.47
2022-10-08T10:28:41.570Z,2.30
2022-10-08T10:31:12.146Z,1.50
2022-10-08T10:33:57.557Z,2.20
2022-10-08T10:36:29.207Z,1.58
2022-10-08T10:39:29.592Z,1.23
2022-10-08T10:42:03.284Z,1.55
2022-10-08T10:44:54.569Z,1.42
2022-10-08T10:47:25.311Z,1.92
2022-10-08T10:49:55.201Z,1.88
2022-10-08T10:52:40.323Z,1.98
2022-10-08T10:55:31.402Z,1.77
2022-10-08T10:58:24.390Z,1.60
2022-10-08T11:01:00.224Z,1.88
2022-10-08T11:03:54.463Z,2.30
2022-10-08T11:06:26.995Z,30.30
2022-10-08T11:09:14.481Z,6.93
2022-10-08T11:11:52.162Z,2.17
2022-10-08T11:14:55.037Z,1.75
2022-10-08T11:17:55.801Z,1.70
2022-10-08T11:20:39.771Z,1.80
2022-10-08T11:23:30.563Z,1.70
2022-10-08T11:26:28.211Z,1.30
2022-10-08T11:29:19.518Z,1.55
2022-10-08T11:31:49.829Z,1.38
2022-10-08T11:34:28.041Z,1.30
2022-10-08T11:37:08.448Z,1.50
2022-10-08T11:39:47.537Z,1.77
2022-10-08T11:42:33.812Z,1.40
2022-10-08T11:45:30.782Z,1.75
2022-10-08T11:48:00.224Z,1.65
2022-10-08T11:50:32.496Z,1.50
2022-10-08T11:53:10.077Z,1.60
2022-10-08T11:55:38.112Z,1.75
2022-10-08T11:58:17.128Z,1.42
2022-10-08T12:00:46.369Z,1.45
2022-10-08T12:03:30.245Z,1.48
2022-10-08T12:06:25.139Z,1.52
2022-10-08T12:08:56.320Z,1.17
2022-10-08T12:11:32.055Z,1.02
2022-10-08T12:14:16.934Z,1.20
2022-10-08T12:16:55.829Z,1.48
2022-10-08T12:19:37.127Z,1.50
2022-10-08T12:22:18.520Z,1.30
2022-10-08T12:24:50.031Z,1.05
2022-10-08T12:27:17.250Z,1.40
2022-10-08T12:30:09.069Z,2.00
2022-10-08T12:32:41.786Z,1.23
2022-10-08T12:35:28.333Z,1.20
2022-10-08T12:38:08.793Z,1.45
2022-10-08T12:40:49.067Z,1.20
2022-10-08T12:43:42.078Z,1.00
2022-10-08T12:46:36.078Z,1.35
2022-10-08T12:49:22.105Z,1.05
2022-10-08T12:51:57.412Z,1.10
2022-10-08T12:54:26.474Z,0.95
2022-10-08T12:56:53.725Z,1.23
2022-10-08T12:59:24.811Z,1.10
2022-10-08T13:01:52.740Z,1.40
2022-10-08T13:04:25.141Z,1.17
2022-10-08T13:06:54.146Z,1.13
2022-10-08T13:09:32.191Z,1.30
2022-10-08T13:12:03.510Z,1.38
2022-10-08T13:14:35.988Z,1.50
2022-10-08T13:17:03.770Z,1.27
2022-10-08T13:19:36.815Z,1.73
2022-10-08T13:22:07.236Z,1.15
2022-10-08T13:24:39.171Z,1.45
2022-10-08T13:27:20.621Z,1.27
2022-10-08T13:29:47.271Z,1.80
2022-10-08T13:32:13.871Z,1.17
2022-10-08T13:34:40.534Z,1.40
2022-10-08T13:37:24.015Z,1.75
2022-10-08T13:39:56.739Z,1.10
2022-10-08T13:42:40.850Z,1.08
2022-10-08T13:45:14.753Z,1.23
2022-10-08T13:47:41.343Z,1.10
2022-10-08T13:50:08.549Z,1.17
2022-10-08T13:52:35.694Z,1.27
2022-10-08T13:55:06.211Z,0.90
2022-10-08T13:57:32.894Z,1.08
2022-10-08T13:59:59.494Z,1.52
2022-10-08T14:02:26.137Z,1.50
2022-10-08T14:04:53.526Z,1.48
2022-10-08T14:07:27.787Z,1.70
2022-10-08T14:09:57.241Z,1.50
2022-10-08T14:12:26.834Z,1.33
2022-10-08T14:14:53.756Z,1.52
2022-10-08T14:17:20.763Z,1.17
2022-10-08T14:19:47.624Z,1.27
2022-10-08T14:22:14.365Z,1.20
2022-10-08T14:24:40.937Z,1.00
2022-10-08T14:27:08.421Z,1.17
2022-10-08T14:29:35.492Z,1.27
2022-10-08T14:32:03.050Z,1.30
2022-10-08T14:34:29.665Z,1.20
2022-10-08T14:36:56.375Z,1.30
2022-10-08T14:39:23.076Z,1.20
2022-10-08T14:41:49.789Z,1.15
2022-10-08T14:44:17.376Z,1.00
2022-10-08T14:46:44.328Z,1.10
2022-10-08T14:49:10.884Z,1.88
2022-10-08T14:51:39.032Z,3.22
2022-10-08T14:54:10.074Z,2.75
2022-10-08T14:56:37.858Z,1.95
2022-10-08T14:59:05.241Z,1.30
2022-10-08T15:01:32.372Z,1.20
2022-10-08T15:03:59.051Z,1.30
2022-10-08T15:06:25.744Z,0.90
2022-10-08T15:08:52.284Z,0.98
2022-10-08T15:11:18.876Z,1.10
2022-10-08T15:13:45.516Z,1.20
2022-10-08T15:16:13.282Z,1.70
2022-10-08T15:18:40.413Z,1.27
2022-10-08T15:21:07.337Z,1.15
2022-10-08T15:23:33.999Z,1.38
2022-10-08T15:26:03.133Z,1.48
2022-10-08T15:28:30.222Z,0.90
2022-10-08T15:31:11.406Z,1.40
2022-10-08T15:33:43.264Z,1.25
2022-10-08T15:36:24.658Z,1.10
2022-10-08T15:38:58.572Z,1.20
2022-10-08T15:41:26.825Z,1.20
2022-10-08T15:43:53.632Z,1.45
2022-10-08T15:46:21.337Z,1.20
2022-10-08T15:48:52.885Z,1.50
2022-10-08T15:51:20.378Z,1.15
2022-10-08T15:53:47.432Z,2.03
2022-10-08T15:56:14.121Z,1.50
2022-10-08T15:58:55.760Z,1.45
2022-10-08T16:01:23.381Z,1.20
2022-10-08T16:03:52.276Z,1.60
2022-10-08T16:06:22.249Z,1.60
2022-10-08T16:08:49.185Z,2.17
2022-10-08T16:11:15.738Z,1.45
2022-10-08T16:13:43.759Z,1.52
2022-10-08T16:16:14.903Z,1.60
2022-10-08T16:18:42.381Z,1.52
2022-10-08T16:21:11.845Z,1.45
2022-10-08T16:23:38.649Z,1.65
2022-10-08T16:26:08.106Z,2.10
2022-10-08T16:28:39.135Z,2.60
2022-10-08T16:31:07.161Z,1.67
2022-10-08T16:33:34.512Z,1.73
2022-10-08T16:36:06.724Z,1.70
2022-10-08T16:38:36.494Z,1.60
2022-10-08T16:41:24.592Z,1.50
2022-10-08T16:43:52.837Z,1.80
2022-10-08T16:46:35.048Z,2.03
2022-10-08T16:49:03.528Z,2.25
2022-10-08T16:51:34.070Z,2.17
2022-10-08T16:54:02.299Z,2.00
2022-10-08T16:56:34.928Z,5.10
2022-10-08T16:59:13.566Z,7.22
2022-10-08T17:01:49.171Z,4.35
2022-10-08T17:04:17.140Z,2.53
2022-10-08T17:06:44.030Z,2.45
2022-10-08T17:09:11.495Z,3.88
2022-10-08T17:11:38.347Z,4.68
2022-10-08T17:14:07.409Z,2.78
2022-10-08T17:16:35.496Z,4.72
2022-10-08T17:19:03.409Z,5.05
2022-10-08T17:21:31.348Z,4.47
2022-10-08T17:23:59.096Z,3.70
2022-10-08T17:26:27.541Z,6.40
2022-10-08T17:28:54.816Z,6.10
2022-10-08T17:31:26.983Z,7.32
2022-10-08T17:33:53.648Z,11.60
2022-10-08T17:36:23.029Z,3.50
2022-10-08T17:38:52.733Z,3.92
2022-10-08T17:41:28.087Z,3.63
2022-10-08T17:43:55.979Z,4.35
2022-10-08T17:46:25.263Z,4.05
2022-10-08T17:48:52.487Z,3.88
2022-10-08T17:51:21.474Z,3.25
2022-10-08T17:53:55.601Z,4.47
2022-10-08T17:56:23.245Z,3.20
2022-10-08T17:58:50.565Z,3.60
2022-10-08T18:01:23.159Z,3.63
2022-10-08T18:03:52.880Z,2.75
2022-10-08T18:06:20.580Z,3.28
2022-10-08T18:08:47.573Z,3.10
2022-10-08T18:11:16.405Z,3.33
2022-10-08T18:13:43.111Z,3.60
2022-10-08T18:16:13.434Z,4.80
2022-10-08T18:18:41.287Z,4.90
2022-10-08T18:21:09.505Z,3.63
2022-10-08T18:23:36.483Z,4.43
2022-10-08T18:26:28.361Z,7.00
2022-10-08T18:28:57.430Z,8.07
2022-10-08T18:31:27.033Z,6.55
2022-10-08T18:33:59.536Z,5.40
2022-10-08T18:36:28.624Z,4.85
2022-10-08T18:39:00.517Z,2.00
2022-10-08T18:41:29.277Z,2.15
2022-10-08T18:43:56.865Z,2.50
2022-10-08T18:46:23.715Z,1.92
2022-10-08T18:48:50.435Z,2.35
2022-10-08T18:51:22.375Z,4.05
2022-10-08T18:53:50.132Z,3.50
2022-10-08T18:56:19.806Z,2.20
2022-10-08T18:58:46.949Z,2.13
2022-10-08T19:01:23.159Z,2.05
2022-10-08T19:03:52.380Z,2.00
2022-10-08T19:06:21.533Z,2.30
2022-10-08T19:08:48.626Z,2.47
2022-10-08T19:11:24.572Z,2.80
2022-10-08T19:13:53.823Z,2.67
2022-10-08T19:16:21.004Z,2.63
2022-10-08T19:18:57.817Z,2.75
2022-10-08T19:21:25.869Z,2.67
2022-10-08T19:23:53.146Z,3.75
2022-10-08T19:26:19.755Z,3.85
2022-10-08T19:28:51.824Z,5.70
2022-10-08T19:31:27.290Z,4.78
2022-10-08T19:33:59.431Z,2.60
2022-10-08T19:36:29.725Z,2.80
2022-10-08T19:38:58.786Z,2.33
2022-10-08T19:41:26.668Z,2.50
2022-10-08T19:43:54.380Z,2.17
2022-10-08T19:46:22.482Z,2.55
2022-10-08T19:48:51.507Z,2.95
2022-10-08T19:51:18.879Z,2.22
2022-10-08T19:53:46.611Z,3.47
2022-10-08T19:56:14.926Z,2.65
2022-10-08T19:58:48.277Z,2.63
2022-10-08T20:01:18.430Z,2.30
2022-10-08T20:03:45.833Z,4.35
2022-10-08T20:06:23.192Z,4.15
2022-10-08T20:08:53.414Z,3.58
2022-10-08T20:11:20.375Z,3.15
2022-10-08T20:13:48.457Z,3.20
2022-10-08T20:16:17.948Z,3.08
2022-10-08T20:18:50.699Z,2.90
2022-10-08T20:21:18.206Z,2.95
2022-10-08T20:23:44.981Z,3.38
2022-10-08T20:26:14.196Z,3.60
2022-10-08T20:28:41.415Z,4.75
2022-10-08T20:31:13.608Z,5.22
2022-10-08T20:33:41.193Z,6.88
2022-10-08T20:36:13.499Z,8.00
2022-10-08T20:38:40.950Z,6.53
2022-10-08T20:41:08.341Z,6.28
2022-10-08T20:43:36.975Z,5.55
2022-10-08T20:46:06.147Z,4.28
2022-10-08T20:48:36.929Z,6.28
2022-10-08T20:51:21.155Z,5.18
2022-10-08T20:53:50.203Z,4.70
2022-10-08T20:56:17.679Z,4.82
2022-10-08T20:58:45.045Z,5.53
2022-10-08T21:01:15.668Z,4.82
2022-10-08T21:03:44.137Z,4.82
2022-10-08T21:06:16.369Z,5.28
2022-10-08T21:08:45.184Z,5.35
2022-10-08T21:11:14.372Z,4.78
2022-10-08T21:13:41.921Z,5.38
2022-10-08T21:16:18.186Z,4.90
2022-10-08T21:18:49.442Z,4.80
2022-10-08T21:21:16.805Z,4.63
2022-10-08T21:23:43.784Z,5.65
2022-10-08T21:26:16.797Z,4.88
2022-10-08T21:28:45.403Z,5.05
2022-10-08T21:31:13.202Z,4.57
2022-10-08T21:33:42.516Z,5.00
2022-10-08T21:36:15.088Z,5.18
2022-10-08T21:38:41.737Z,5.10
2022-10-08T21:41:13.417Z,5.53
2022-10-08T21:43:45.358Z,6.72
2022-10-08T21:46:14.372Z,7.50
2022-10-08T21:48:42.113Z,7.13
2022-10-08T21:51:11.890Z,6.45
2022-10-08T21:53:41.151Z,6.03
2022-10-08T21:56:11.269Z,5.38
2022-10-08T21:58:43.484Z,5.93
2022-10-08T22:01:23.732Z,5.10
2022-10-08T22:03:54.283Z,5.22
2022-10-08T22:06:21.813Z,5.93
2022-10-08T22:08:49.217Z,5.45
2022-10-08T22:11:16.312Z,5.90
2022-10-08T22:13:43.039Z,5.45
2022-10-08T22:16:12.557Z,6.10
2022-10-08T22:18:39.946Z,5.75
2022-10-08T22:21:11.229Z,5.75
2022-10-08T22:23:38.235Z,5.80
2022-10-08T22:26:10.625Z,6.10
2022-10-08T22:28:38.394Z,6.00
2022-10-08T22:31:07.212Z,6.50
2022-10-08T22:33:34.301Z,5.82
2022-10-08T22:36:09.695Z,6.05
2022-10-08T22:38:37.866Z,6.30
2022-10-08T22:41:10.128Z,6.53
2022-10-08T22:43:38.130Z,6.10
2022-10-08T22:46:07.490Z,5.70
2022-10-08T22:48:34.176Z,5.47
2022-10-08T22:51:06.545Z,6.18
2022-10-08T22:53:33.731Z,5.63
2022-10-08T22:56:22.069Z,5.50
2022-10-08T22:58:49.649Z,5.57
2022-10-08T23:01:19.072Z,6.00
2022-10-08T23:03:46.294Z,5.78
2022-10-08T23:06:33.393Z,6.88
2022-10-08T23:09:02.478Z,7.10
2022-10-08T23:11:29.976Z,6.70
2022-10-08T23:13:58.213Z,6.40
2022-10-08T23:16:26.984Z,6.65
2022-10-08T23:18:59.583Z,7.57
2022-10-08T23:21:27.335Z,7.38
2022-10-08T23:23:54.659Z,7.32
2022-10-08T23:26:22.867Z,7.03
2022-10-08T23:28:54.863Z,5.82
2022-10-08T23:31:23.881Z,5.72
2022-10-08T23:33:52.459Z,4.93
2022-10-08T23:36:27.083Z,5.32
2022-10-08T23:38:53.688Z,6.30
2022-10-08T23:41:20.544Z,6.22
2022-10-08T23:43:48.712Z,6.10
2022-10-08T23:46:18.051Z,5.57
2022-10-08T23:48:45.046Z,5.90
2022-10-08T23:51:13.370Z,5.70
2022-10-08T23:53:42.347Z,5.78
2022-10-08T23:56:09.734Z,5.80
2022-10-08T23:58:36.618Z,5.32
